KRYY/RYY METAR and TAF weather

Enter ICAO airport designator
Station Type Date Time Source
KRYY METAR 2019/02/20 16:53 UTC NOAA

KRYY 201653Z 08010G16KT 5SM BR OVC005 04/04 A3016 RMK AO2


Station Type Date Time Source
KRYY Decoded METAR 2019/02/20 16:53 UTC NOAA

Marietta, Cobb County-McCollum Field Airport, GA, United States (KRYY) 34-00-47N 084-35-55W
Feb 20, 2019 - 11:53 AM EST / 2019.02.20 1653 UTC
Wind: from the E (080 degrees) at 12 MPH (10 KT) gusting to 18 MPH (16 KT):0
Visibility: 5 mile(s):0
Sky conditions: overcast
Weather: mist
Temperature: 39 F (4 C)
Dew Point: 39 F (4 C)
Relative Humidity: 100%
Pressure (altimeter): 30.16 in. Hg (1021 hPa)
ob: KRYY 201653Z 08010G16KT 5SM BR OVC005 04/04 A3016 RMK AO2
cycle: 17

Station Type Date Time Source
KRYY TAF 2019/02/20 12:30 UTC NOAA

TAF KRYY 201126Z 2012/2112 10012G18KT 5SM -RADZ OVC007
FM201500 11012KT 5SM BR VCSH OVC007
FM202200 13008KT 4SM -SHRA OVC006
FM210200 14004KT 3SM -SHRA OVC003
FM210800 20004KT 2SM -SHRA OVC003


Example: see airport list